Eden, Indiana
Current Conditions -  °F | °C
As of 8:14 AM on Wednesday 22 Oct 2014 (Local Time) from KMQJ Reporting Station
Broken Clouds Broken Clouds  
Wind Chill: 32°   Ceiling: 2400
Heat Index: 36°   Visibility: 10mi
Dew Point: 36°   Wind: 5mph
Humidity: 100%   Direction: 10°N
Pressure: 30.3"   Gusts: NA
Location:  39.7974°N, 85.7653°W
Report Text: KMQJ 221214Z AUTO 01004KT 10SM BKN024 02/02 A3030 RMK AO1
Loading
Personal Weather Stations






























Interactive Weather Map
Tropical Storm Tracking
New forecast layout! Learn more

10-Day Weather Forecast

Advertisements
Track Severe Weather on mobile